sensor_id;sensor_type;location;lat;lon;timestamp;P1;durP1;ratioP1;P2;durP2;ratioP2
58581;SDS011;44361;51.476;5.700;2024-01-27T00:01:37;20.15;;;5.35;;
58581;SDS011;44361;51.476;5.700;2024-01-27T00:04:02;21.98;;;5.30;;
58581;SDS011;44361;51.476;5.700;2024-01-27T00:06:28;19.88;;;4.72;;
58581;SDS011;44361;51.476;5.700;2024-01-27T00:08:53;16.73;;;5.10;;
58581;SDS011;44361;51.476;5.700;2024-01-27T00:11:19;17.77;;;5.18;;
58581;SDS011;44361;51.476;5.700;2024-01-27T00:13:45;22.42;;;4.43;;
58581;SDS011;44361;51.476;5.700;2024-01-27T00:16:11;20.35;;;5.25;;
58581;SDS011;44361;51.476;5.700;2024-01-27T00:18:37;29.73;;;5.00;;
58581;SDS011;44361;51.476;5.700;2024-01-27T00:21:03;24.20;;;5.55;;
58581;SDS011;44361;51.476;5.700;2024-01-27T00:23:30;21.48;;;5.75;;
58581;SDS011;44361;51.476;5.700;2024-01-27T00:25:57;23.25;;;5.43;;
58581;SDS011;44361;51.476;5.700;2024-01-27T00:28:23;22.85;;;5.32;;
58581;SDS011;44361;51.476;5.700;2024-01-27T00:30:48;22.27;;;5.57;;
58581;SDS011;44361;51.476;5.700;2024-01-27T00:33:14;18.33;;;5.63;;
58581;SDS011;44361;51.476;5.700;2024-01-27T00:35:40;23.52;;;6.22;;
58581;SDS011;44361;51.476;5.700;2024-01-27T00:38:05;13.57;;;4.82;;
58581;SDS011;44361;51.476;5.700;2024-01-27T00:40:31;18.35;;;5.45;;
58581;SDS011;44361;51.476;5.700;2024-01-27T00:42:56;24.27;;;6.15;;
58581;SDS011;44361;51.476;5.700;2024-01-27T00:45:22;26.65;;;5.35;;
58581;SDS011;44361;51.476;5.700;2024-01-27T00:47:48;21.92;;;5.90;;
58581;SDS011;44361;51.476;5.700;2024-01-27T00:50:15;29.77;;;5.93;;
58581;SDS011;44361;51.476;5.700;2024-01-27T00:52:40;20.38;;;5.25;;
58581;SDS011;44361;51.476;5.700;2024-01-27T00:55:06;17.95;;;6.15;;
58581;SDS011;44361;51.476;5.700;2024-01-27T00:57:32;22.35;;;6.05;;
58581;SDS011;44361;51.476;5.700;2024-01-27T00:59:58;20.45;;;5.68;;
58581;SDS011;44361;51.476;5.700;2024-01-27T01:02:23;23.00;;;6.15;;
58581;SDS011;44361;51.476;5.700;2024-01-27T01:04:49;18.90;;;5.93;;
58581;SDS011;44361;51.476;5.700;2024-01-27T01:07:15;20.48;;;6.30;;
58581;SDS011;44361;51.476;5.700;2024-01-27T01:09:40;22.95;;;5.97;;
58581;SDS011;44361;51.476;5.700;2024-01-27T01:12:06;22.35;;;5.70;;
58581;SDS011;44361;51.476;5.700;2024-01-27T01:14:32;18.02;;;5.95;;
58581;SDS011;44361;51.476;5.700;2024-01-27T01:16:57;18.65;;;6.40;;
58581;SDS011;44361;51.476;5.700;2024-01-27T01:19:23;27.60;;;6.47;;
58581;SDS011;44361;51.476;5.700;2024-01-27T01:21:49;24.10;;;6.20;;
58581;SDS011;44361;51.476;5.700;2024-01-27T01:24:14;23.77;;;5.85;;
58581;SDS011;44361;51.476;5.700;2024-01-27T01:26:40;22.85;;;6.68;;
58581;SDS011;44361;51.476;5.700;2024-01-27T01:29:05;25.17;;;6.88;;
58581;SDS011;44361;51.476;5.700;2024-01-27T01:31:31;16.23;;;5.32;;
58581;SDS011;44361;51.476;5.700;2024-01-27T01:33:57;27.83;;;6.13;;
58581;SDS011;44361;51.476;5.700;2024-01-27T01:36:23;26.05;;;6.75;;
58581;SDS011;44361;51.476;5.700;2024-01-27T01:38:48;21.67;;;6.05;;
58581;SDS011;44361;51.476;5.700;2024-01-27T01:41:14;23.65;;;6.25;;
58581;SDS011;44361;51.476;5.700;2024-01-27T01:43:39;26.42;;;6.70;;
58581;SDS011;44361;51.476;5.700;2024-01-27T01:46:05;27.83;;;6.68;;
58581;SDS011;44361;51.476;5.700;2024-01-27T01:48:31;23.02;;;7.28;;
58581;SDS011;44361;51.476;5.700;2024-01-27T01:50:57;21.75;;;6.35;;
58581;SDS011;44361;51.476;5.700;2024-01-27T01:53:23;27.50;;;6.03;;
58581;SDS011;44361;51.476;5.700;2024-01-27T01:55:50;22.35;;;6.38;;
58581;SDS011;44361;51.476;5.700;2024-01-27T01:58:17;21.65;;;6.95;;
58581;SDS011;44361;51.476;5.700;2024-01-27T02:00:43;23.83;;;6.47;;
58581;SDS011;44361;51.476;5.700;2024-01-27T02:03:12;28.70;;;6.97;;
58581;SDS011;44361;51.476;5.700;2024-01-27T02:05:38;25.30;;;6.57;;
58581;SDS011;44361;51.476;5.700;2024-01-27T02:08:04;25.65;;;6.45;;
58581;SDS011;44361;51.476;5.700;2024-01-27T02:10:30;27.20;;;6.90;;
58581;SDS011;44361;51.476;5.700;2024-01-27T02:13:01;26.02;;;6.88;;
58581;SDS011;44361;51.476;5.700;2024-01-27T02:15:28;21.95;;;6.75;;
58581;SDS011;44361;51.476;5.700;2024-01-27T02:17:54;28.20;;;7.35;;
58581;SDS011;44361;51.476;5.700;2024-01-27T02:20:19;29.52;;;7.88;;
58581;SDS011;44361;51.476;5.700;2024-01-27T02:22:45;23.02;;;7.10;;
58581;SDS011;44361;51.476;5.700;2024-01-27T02:25:10;24.63;;;7.47;;
58581;SDS011;44361;51.476;5.700;2024-01-27T02:27:36;31.50;;;7.03;;
58581;SDS011;44361;51.476;5.700;2024-01-27T02:30:02;32.28;;;7.18;;
58581;SDS011;44361;51.476;5.700;2024-01-27T02:32:27;27.35;;;7.72;;
58581;SDS011;44361;51.476;5.700;2024-01-27T02:34:53;21.40;;;7.53;;
58581;SDS011;44361;51.476;5.700;2024-01-27T02:37:18;24.33;;;6.90;;
58581;SDS011;44361;51.476;5.700;2024-01-27T02:39:44;24.45;;;6.97;;
58581;SDS011;44361;51.476;5.700;2024-01-27T02:42:10;26.65;;;7.45;;
58581;SDS011;44361;51.476;5.700;2024-01-27T02:44:35;23.85;;;7.57;;
58581;SDS011;44361;51.476;5.700;2024-01-27T02:47:01;28.27;;;7.63;;
58581;SDS011;44361;51.476;5.700;2024-01-27T02:49:26;28.55;;;7.60;;
58581;SDS011;44361;51.476;5.700;2024-01-27T02:51:52;27.65;;;8.18;;
58581;SDS011;44361;51.476;5.700;2024-01-27T02:54:17;22.85;;;8.00;;
58581;SDS011;44361;51.476;5.700;2024-01-27T02:56:43;26.55;;;7.82;;
58581;SDS011;44361;51.476;5.700;2024-01-27T02:59:08;32.17;;;7.45;;
58581;SDS011;44361;51.476;5.700;2024-01-27T03:01:36;35.25;;;9.13;;
58581;SDS011;44361;51.476;5.700;2024-01-27T03:04:01;30.25;;;7.70;;
58581;SDS011;44361;51.476;5.700;2024-01-27T03:06:28;26.50;;;7.32;;
58581;SDS011;44361;51.476;5.700;2024-01-27T03:08:54;20.10;;;6.95;;
58581;SDS011;44361;51.476;5.700;2024-01-27T03:11:20;25.83;;;8.13;;
58581;SDS011;44361;51.476;5.700;2024-01-27T03:13:46;38.97;;;8.38;;
58581;SDS011;44361;51.476;5.700;2024-01-27T03:16:12;26.00;;;7.78;;
58581;SDS011;44361;51.476;5.700;2024-01-27T03:18:38;16.65;;;6.65;;
58581;SDS011;44361;51.476;5.700;2024-01-27T03:21:03;29.38;;;8.15;;
58581;SDS011;44361;51.476;5.700;2024-01-27T03:23:32;17.52;;;7.97;;
58581;SDS011;44361;51.476;5.700;2024-01-27T03:25:57;25.60;;;8.02;;
58581;SDS011;44361;51.476;5.700;2024-01-27T03:28:23;22.13;;;7.65;;
58581;SDS011;44361;51.476;5.700;2024-01-27T03:30:48;28.27;;;7.13;;
58581;SDS011;44361;51.476;5.700;2024-01-27T03:33:14;29.63;;;8.43;;
58581;SDS011;44361;51.476;5.700;2024-01-27T03:35:39;27.17;;;7.43;;
58581;SDS011;44361;51.476;5.700;2024-01-27T03:38:05;22.05;;;6.60;;
58581;SDS011;44361;51.476;5.700;2024-01-27T03:40:31;25.95;;;8.38;;
58581;SDS011;44361;51.476;5.700;2024-01-27T03:42:56;30.77;;;8.55;;
58581;SDS011;44361;51.476;5.700;2024-01-27T03:45:22;28.58;;;7.85;;
58581;SDS011;44361;51.476;5.700;2024-01-27T03:47:48;21.10;;;7.38;;
58581;SDS011;44361;51.476;5.700;2024-01-27T03:50:13;25.77;;;7.60;;
58581;SDS011;44361;51.476;5.700;2024-01-27T03:52:39;20.58;;;7.63;;
58581;SDS011;44361;51.476;5.700;2024-01-27T03:55:06;20.25;;;7.10;;
58581;SDS011;44361;51.476;5.700;2024-01-27T03:57:31;27.67;;;7.97;;
58581;SDS011;44361;51.476;5.700;2024-01-27T03:59:57;22.85;;;7.45;;
58581;SDS011;44361;51.476;5.700;2024-01-27T04:02:22;16.65;;;6.60;;
58581;SDS011;44361;51.476;5.700;2024-01-27T04:04:48;19.20;;;7.18;;
58581;SDS011;44361;51.476;5.700;2024-01-27T04:07:13;21.08;;;7.43;;
58581;SDS011;44361;51.476;5.700;2024-01-27T04:09:39;28.88;;;7.68;;
58581;SDS011;44361;51.476;5.700;2024-01-27T04:12:05;26.30;;;7.45;;
58581;SDS011;44361;51.476;5.700;2024-01-27T04:14:30;26.58;;;7.57;;
58581;SDS011;44361;51.476;5.700;2024-01-27T04:16:56;28.00;;;7.88;;
58581;SDS011;44361;51.476;5.700;2024-01-27T04:19:22;21.92;;;6.85;;
58581;SDS011;44361;51.476;5.700;2024-01-27T04:21:47;24.40;;;7.47;;
58581;SDS011;44361;51.476;5.700;2024-01-27T04:24:13;32.67;;;8.13;;
58581;SDS011;44361;51.476;5.700;2024-01-27T04:26:38;23.20;;;7.70;;
58581;SDS011;44361;51.476;5.700;2024-01-27T04:29:04;23.55;;;7.88;;
58581;SDS011;44361;51.476;5.700;2024-01-27T04:31:29;21.27;;;8.02;;
58581;SDS011;44361;51.476;5.700;2024-01-27T04:33:56;29.15;;;8.23;;
58581;SDS011;44361;51.476;5.700;2024-01-27T04:36:29;26.55;;;8.38;;
58581;SDS011;44361;51.476;5.700;2024-01-27T04:38:55;31.20;;;8.00;;
58581;SDS011;44361;51.476;5.700;2024-01-27T04:41:20;18.42;;;8.55;;
58581;SDS011;44361;51.476;5.700;2024-01-27T04:43:46;30.08;;;8.27;;
58581;SDS011;44361;51.476;5.700;2024-01-27T04:46:12;30.50;;;8.95;;
58581;SDS011;44361;51.476;5.700;2024-01-27T04:48:37;33.15;;;8.90;;
58581;SDS011;44361;51.476;5.700;2024-01-27T04:51:03;27.65;;;7.88;;
58581;SDS011;44361;51.476;5.700;2024-01-27T04:53:28;26.65;;;8.85;;
58581;SDS011;44361;51.476;5.700;2024-01-27T04:55:54;32.65;;;9.13;;
58581;SDS011;44361;51.476;5.700;2024-01-27T04:58:20;29.38;;;10.70;;
58581;SDS011;44361;51.476;5.700;2024-01-27T05:00:45;25.67;;;9.98;;
58581;SDS011;44361;51.476;5.700;2024-01-27T05:03:11;24.50;;;9.20;;
58581;SDS011;44361;51.476;5.700;2024-01-27T05:05:42;21.95;;;8.70;;
58581;SDS011;44361;51.476;5.700;2024-01-27T05:08:09;20.00;;;8.10;;
58581;SDS011;44361;51.476;5.700;2024-01-27T05:10:35;29.67;;;10.00;;
58581;SDS011;44361;51.476;5.700;2024-01-27T05:13:01;27.98;;;8.93;;
58581;SDS011;44361;51.476;5.700;2024-01-27T05:15:26;32.05;;;9.50;;
58581;SDS011;44361;51.476;5.700;2024-01-27T05:17:52;24.80;;;9.07;;
58581;SDS011;44361;51.476;5.700;2024-01-27T05:20:18;28.55;;;9.27;;
58581;SDS011;44361;51.476;5.700;2024-01-27T05:22:44;30.15;;;8.35;;
58581;SDS011;44361;51.476;5.700;2024-01-27T05:25:10;26.70;;;8.38;;
58581;SDS011;44361;51.476;5.700;2024-01-27T05:27:36;22.27;;;8.85;;
58581;SDS011;44361;51.476;5.700;2024-01-27T05:30:03;26.08;;;9.15;;
58581;SDS011;44361;51.476;5.700;2024-01-27T05:32:30;30.60;;;10.45;;
58581;SDS011;44361;51.476;5.700;2024-01-27T05:34:56;30.35;;;9.30;;
58581;SDS011;44361;51.476;5.700;2024-01-27T05:37:21;19.77;;;8.80;;
58581;SDS011;44361;51.476;5.700;2024-01-27T05:39:47;26.70;;;9.27;;
58581;SDS011;44361;51.476;5.700;2024-01-27T05:42:12;26.13;;;10.13;;
58581;SDS011;44361;51.476;5.700;2024-01-27T05:44:38;25.27;;;9.52;;
58581;SDS011;44361;51.476;5.700;2024-01-27T05:47:05;33.75;;;9.13;;
58581;SDS011;44361;51.476;5.700;2024-01-27T05:49:31;26.38;;;9.25;;
58581;SDS011;44361;51.476;5.700;2024-01-27T05:51:57;30.73;;;10.18;;
58581;SDS011;44361;51.476;5.700;2024-01-27T05:54:22;25.02;;;9.60;;
58581;SDS011;44361;51.476;5.700;2024-01-27T05:56:48;26.60;;;9.88;;
58581;SDS011;44361;51.476;5.700;2024-01-27T05:59:13;36.75;;;10.88;;
58581;SDS011;44361;51.476;5.700;2024-01-27T06:01:39;30.67;;;10.25;;
58581;SDS011;44361;51.476;5.700;2024-01-27T06:04:06;25.45;;;9.27;;
58581;SDS011;44361;51.476;5.700;2024-01-27T06:06:31;27.48;;;10.95;;
58581;SDS011;44361;51.476;5.700;2024-01-27T06:08:57;30.52;;;11.02;;
58581;SDS011;44361;51.476;5.700;2024-01-27T06:11:26;23.70;;;9.88;;
58581;SDS011;44361;51.476;5.700;2024-01-27T06:13:51;29.00;;;11.27;;
58581;SDS011;44361;51.476;5.700;2024-01-27T06:16:17;36.03;;;11.23;;
58581;SDS011;44361;51.476;5.700;2024-01-27T06:18:46;28.60;;;10.52;;
58581;SDS011;44361;51.476;5.700;2024-01-27T06:21:11;36.13;;;10.93;;
58581;SDS011;44361;51.476;5.700;2024-01-27T06:23:38;26.02;;;10.35;;
58581;SDS011;44361;51.476;5.700;2024-01-27T06:26:05;38.15;;;11.07;;
58581;SDS011;44361;51.476;5.700;2024-01-27T06:28:33;33.47;;;11.27;;
58581;SDS011;44361;51.476;5.700;2024-01-27T06:31:00;26.15;;;10.85;;
58581;SDS011;44361;51.476;5.700;2024-01-27T06:33:26;23.50;;;10.35;;
58581;SDS011;44361;51.476;5.700;2024-01-27T06:35:51;32.92;;;11.23;;
58581;SDS011;44361;51.476;5.700;2024-01-27T06:38:17;30.08;;;11.85;;
58581;SDS011;44361;51.476;5.700;2024-01-27T06:40:42;29.95;;;10.07;;
58581;SDS011;44361;51.476;5.700;2024-01-27T06:43:09;38.33;;;11.20;;
58581;SDS011;44361;51.476;5.700;2024-01-27T06:45:37;36.13;;;11.02;;
58581;SDS011;44361;51.476;5.700;2024-01-27T06:48:03;29.00;;;11.35;;
58581;SDS011;44361;51.476;5.700;2024-01-27T06:50:30;27.80;;;10.90;;
58581;SDS011;44361;51.476;5.700;2024-01-27T06:52:55;29.85;;;11.88;;
58581;SDS011;44361;51.476;5.700;2024-01-27T06:55:21;32.63;;;11.90;;
58581;SDS011;44361;51.476;5.700;2024-01-27T06:57:46;26.70;;;11.57;;
58581;SDS011;44361;51.476;5.700;2024-01-27T07:00:12;47.10;;;11.82;;
58581;SDS011;44361;51.476;5.700;2024-01-27T07:02:39;34.17;;;12.60;;
58581;SDS011;44361;51.476;5.700;2024-01-27T07:05:08;28.15;;;11.68;;
58581;SDS011;44361;51.476;5.700;2024-01-27T07:07:34;36.83;;;11.65;;
58581;SDS011;44361;51.476;5.700;2024-01-27T07:10:01;39.63;;;13.35;;
58581;SDS011;44361;51.476;5.700;2024-01-27T07:12:26;34.58;;;12.73;;
58581;SDS011;44361;51.476;5.700;2024-01-27T07:14:52;40.53;;;12.50;;
58581;SDS011;44361;51.476;5.700;2024-01-27T07:17:19;38.30;;;12.55;;
58581;SDS011;44361;51.476;5.700;2024-01-27T07:19:45;34.35;;;12.35;;
58581;SDS011;44361;51.476;5.700;2024-01-27T07:22:11;28.95;;;11.55;;
58581;SDS011;44361;51.476;5.700;2024-01-27T07:24:37;36.78;;;12.82;;
58581;SDS011;44361;51.476;5.700;2024-01-27T07:27:02;36.30;;;12.25;;
58581;SDS011;44361;51.476;5.700;2024-01-27T07:29:29;45.78;;;13.13;;
58581;SDS011;44361;51.476;5.700;2024-01-27T07:31:54;41.80;;;13.65;;
58581;SDS011;44361;51.476;5.700;2024-01-27T07:34:20;38.47;;;12.82;;
58581;SDS011;44361;51.476;5.700;2024-01-27T07:36:46;36.85;;;12.98;;
58581;SDS011;44361;51.476;5.700;2024-01-27T07:39:13;37.83;;;12.43;;
58581;SDS011;44361;51.476;5.700;2024-01-27T07:41:38;38.90;;;13.48;;
58581;SDS011;44361;51.476;5.700;2024-01-27T07:44:07;43.08;;;14.30;;
58581;SDS011;44361;51.476;5.700;2024-01-27T07:46:35;41.97;;;13.85;;
58581;SDS011;44361;51.476;5.700;2024-01-27T07:49:01;37.55;;;13.02;;
58581;SDS011;44361;51.476;5.700;2024-01-27T07:51:28;39.53;;;14.52;;
58581;SDS011;44361;51.476;5.700;2024-01-27T07:53:53;42.53;;;14.27;;
58581;SDS011;44361;51.476;5.700;2024-01-27T07:56:19;43.80;;;14.20;;
58581;SDS011;44361;51.476;5.700;2024-01-27T07:58:44;38.50;;;14.75;;
58581;SDS011;44361;51.476;5.700;2024-01-27T08:01:10;35.35;;;13.95;;
58581;SDS011;44361;51.476;5.700;2024-01-27T08:03:39;39.13;;;15.23;;
58581;SDS011;44361;51.476;5.700;2024-01-27T08:06:05;42.90;;;14.32;;
58581;SDS011;44361;51.476;5.700;2024-01-27T08:08:32;34.30;;;14.32;;
58581;SDS011;44361;51.476;5.700;2024-01-27T08:10:58;43.58;;;14.68;;
58581;SDS011;44361;51.476;5.700;2024-01-27T08:13:23;37.80;;;14.63;;
58581;SDS011;44361;51.476;5.700;2024-01-27T08:15:49;39.50;;;13.88;;
58581;SDS011;44361;51.476;5.700;2024-01-27T08:18:14;46.97;;;14.25;;
58581;SDS011;44361;51.476;5.700;2024-01-27T08:20:40;38.08;;;13.80;;
58581;SDS011;44361;51.476;5.700;2024-01-27T08:23:06;40.28;;;14.02;;
58581;SDS011;44361;51.476;5.700;2024-01-27T08:25:31;36.15;;;14.90;;
58581;SDS011;44361;51.476;5.700;2024-01-27T08:27:57;36.92;;;13.60;;
58581;SDS011;44361;51.476;5.700;2024-01-27T08:30:22;34.97;;;13.82;;
58581;SDS011;44361;51.476;5.700;2024-01-27T08:32:48;33.08;;;14.30;;
58581;SDS011;44361;51.476;5.700;2024-01-27T08:35:13;38.28;;;14.57;;
58581;SDS011;44361;51.476;5.700;2024-01-27T08:37:39;43.78;;;15.95;;
58581;SDS011;44361;51.476;5.700;2024-01-27T08:40:05;42.80;;;15.02;;
58581;SDS011;44361;51.476;5.700;2024-01-27T08:42:31;49.05;;;15.27;;
58581;SDS011;44361;51.476;5.700;2024-01-27T08:44:56;42.13;;;15.43;;
58581;SDS011;44361;51.476;5.700;2024-01-27T08:47:22;33.53;;;15.40;;
58581;SDS011;44361;51.476;5.700;2024-01-27T08:49:47;46.20;;;14.75;;
58581;SDS011;44361;51.476;5.700;2024-01-27T08:52:13;37.95;;;14.68;;
58581;SDS011;44361;51.476;5.700;2024-01-27T08:54:39;47.42;;;14.80;;
58581;SDS011;44361;51.476;5.700;2024-01-27T08:57:05;42.63;;;15.45;;
58581;SDS011;44361;51.476;5.700;2024-01-27T08:59:31;45.95;;;16.08;;
58581;SDS011;44361;51.476;5.700;2024-01-27T09:01:57;40.63;;;15.45;;
58581;SDS011;44361;51.476;5.700;2024-01-27T09:04:22;52.05;;;15.35;;
58581;SDS011;44361;51.476;5.700;2024-01-27T09:06:48;42.95;;;15.18;;
58581;SDS011;44361;51.476;5.700;2024-01-27T09:09:13;44.28;;;14.88;;
58581;SDS011;44361;51.476;5.700;2024-01-27T09:11:39;43.30;;;15.23;;
58581;SDS011;44361;51.476;5.700;2024-01-27T09:14:05;43.97;;;15.27;;
58581;SDS011;44361;51.476;5.700;2024-01-27T09:16:32;44.08;;;15.20;;
58581;SDS011;44361;51.476;5.700;2024-01-27T09:18:58;41.65;;;15.27;;
58581;SDS011;44361;51.476;5.700;2024-01-27T09:21:24;50.33;;;16.00;;
58581;SDS011;44361;51.476;5.700;2024-01-27T09:23:54;45.10;;;15.07;;
58581;SDS011;44361;51.476;5.700;2024-01-27T09:26:19;41.53;;;15.27;;
58581;SDS011;44361;51.476;5.700;2024-01-27T09:28:45;52.30;;;16.85;;
58581;SDS011;44361;51.476;5.700;2024-01-27T09:31:19;40.50;;;13.02;;
58581;SDS011;44361;51.476;5.700;2024-01-27T09:33:51;48.92;;;13.65;;
58581;SDS011;44361;51.476;5.700;2024-01-27T09:36:17;44.70;;;14.07;;
58581;SDS011;44361;51.476;5.700;2024-01-27T09:38:43;42.95;;;13.80;;
58581;SDS011;44361;51.476;5.700;2024-01-27T09:41:10;41.08;;;14.15;;
58581;SDS011;44361;51.476;5.700;2024-01-27T09:43:37;40.55;;;12.82;;
58581;SDS011;44361;51.476;5.700;2024-01-27T09:46:09;40.00;;;12.77;;
58581;SDS011;44361;51.476;5.700;2024-01-27T09:48:36;50.20;;;13.95;;
58581;SDS011;44361;51.476;5.700;2024-01-27T09:51:01;46.63;;;12.93;;
58581;SDS011;44361;51.476;5.700;2024-01-27T09:53:29;28.85;;;12.40;;
58581;SDS011;44361;51.476;5.700;2024-01-27T09:55:56;42.25;;;12.98;;
58581;SDS011;44361;51.476;5.700;2024-01-27T09:58:23;42.67;;;13.15;;
58581;SDS011;44361;51.476;5.700;2024-01-27T10:00:52;39.60;;;12.93;;
58581;SDS011;44361;51.476;5.700;2024-01-27T10:03:21;34.03;;;11.85;;
58581;SDS011;44361;51.476;5.700;2024-01-27T10:05:52;34.08;;;12.65;;
58581;SDS011;44361;51.476;5.700;2024-01-27T10:08:20;35.25;;;12.13;;
58581;SDS011;44361;51.476;5.700;2024-01-27T10:10:58;28.85;;;12.30;;
58581;SDS011;44361;51.476;5.700;2024-01-27T10:13:24;29.13;;;11.10;;
58581;SDS011;44361;51.476;5.700;2024-01-27T10:16:02;39.15;;;12.45;;
58581;SDS011;44361;51.476;5.700;2024-01-27T10:18:29;24.52;;;10.23;;
58581;SDS011;44361;51.476;5.700;2024-01-27T10:20:55;30.40;;;11.32;;
58581;SDS011;44361;51.476;5.700;2024-01-27T10:23:21;29.48;;;10.35;;
58581;SDS011;44361;51.476;5.700;2024-01-27T10:25:47;32.28;;;10.45;;
58581;SDS011;44361;51.476;5.700;2024-01-27T10:28:12;27.58;;;10.02;;
58581;SDS011;44361;51.476;5.700;2024-01-27T10:30:38;40.45;;;10.45;;
58581;SDS011;44361;51.476;5.700;2024-01-27T10:33:04;30.92;;;9.68;;
58581;SDS011;44361;51.476;5.700;2024-01-27T10:35:29;36.85;;;11.07;;
58581;SDS011;44361;51.476;5.700;2024-01-27T10:37:55;29.77;;;9.50;;
58581;SDS011;44361;51.476;5.700;2024-01-27T10:40:21;26.17;;;9.57;;
58581;SDS011;44361;51.476;5.700;2024-01-27T10:43:01;41.22;;;10.40;;
58581;SDS011;44361;51.476;5.700;2024-01-27T10:45:33;32.58;;;10.10;;
58581;SDS011;44361;51.476;5.700;2024-01-27T10:48:02;32.08;;;9.95;;
58581;SDS011;44361;51.476;5.700;2024-01-27T10:50:28;32.00;;;9.82;;
58581;SDS011;44361;51.476;5.700;2024-01-27T10:52:57;32.92;;;8.80;;
58581;SDS011;44361;51.476;5.700;2024-01-27T10:55:24;30.52;;;9.77;;
58581;SDS011;44361;51.476;5.700;2024-01-27T10:57:50;28.00;;;8.05;;
58581;SDS011;44361;51.476;5.700;2024-01-27T11:00:19;29.20;;;8.73;;
58581;SDS011;44361;51.476;5.700;2024-01-27T11:02:44;28.20;;;8.80;;
58581;SDS011;44361;51.476;5.700;2024-01-27T11:05:11;23.83;;;8.40;;
58581;SDS011;44361;51.476;5.700;2024-01-27T11:07:40;27.45;;;7.63;;
58581;SDS011;44361;51.476;5.700;2024-01-27T11:10:07;31.27;;;7.75;;
58581;SDS011;44361;51.476;5.700;2024-01-27T11:12:33;33.33;;;7.03;;
58581;SDS011;44361;51.476;5.700;2024-01-27T11:14:59;26.42;;;7.45;;
58581;SDS011;44361;51.476;5.700;2024-01-27T11:17:25;27.98;;;6.63;;
58581;SDS011;44361;51.476;5.700;2024-01-27T11:19:51;23.60;;;6.10;;
58581;SDS011;44361;51.476;5.700;2024-01-27T11:22:23;17.80;;;5.85;;
58581;SDS011;44361;51.476;5.700;2024-01-27T11:24:51;18.50;;;4.78;;
58581;SDS011;44361;51.476;5.700;2024-01-27T11:27:17;23.38;;;5.80;;
58581;SDS011;44361;51.476;5.700;2024-01-27T11:29:46;21.02;;;4.78;;
58581;SDS011;44361;51.476;5.700;2024-01-27T11:32:13;17.63;;;4.35;;
58581;SDS011;44361;51.476;5.700;2024-01-27T11:34:43;21.25;;;4.22;;
58581;SDS011;44361;51.476;5.700;2024-01-27T11:37:10;19.23;;;3.92;;
58581;SDS011;44361;51.476;5.700;2024-01-27T11:39:37;12.98;;;3.13;;
58581;SDS011;44361;51.476;5.700;2024-01-27T11:44:35;14.70;;;3.22;;
58581;SDS011;44361;51.476;5.700;2024-01-27T11:47:01;15.00;;;3.30;;
58581;SDS011;44361;51.476;5.700;2024-01-27T11:49:27;17.35;;;3.85;;
58581;SDS011;44361;51.476;5.700;2024-01-27T11:51:53;17.00;;;3.35;;
58581;SDS011;44361;51.476;5.700;2024-01-27T11:54:19;14.45;;;3.20;;
58581;SDS011;44361;51.476;5.700;2024-01-27T11:56:45;14.73;;;3.40;;
58581;SDS011;44361;51.476;5.700;2024-01-27T11:59:11;15.80;;;3.92;;
58581;SDS011;44361;51.476;5.700;2024-01-27T12:01:36;14.88;;;4.22;;
58581;SDS011;44361;51.476;5.700;2024-01-27T12:04:02;16.73;;;3.40;;
58581;SDS011;44361;51.476;5.700;2024-01-27T12:06:29;17.63;;;4.05;;
58581;SDS011;44361;51.476;5.700;2024-01-27T12:08:55;14.15;;;3.72;;
58581;SDS011;44361;51.476;5.700;2024-01-27T12:11:23;22.02;;;3.55;;
58581;SDS011;44361;51.476;5.700;2024-01-27T12:13:49;14.73;;;3.80;;
58581;SDS011;44361;51.476;5.700;2024-01-27T12:16:15;18.83;;;3.38;;
58581;SDS011;44361;51.476;5.700;2024-01-27T12:18:41;19.63;;;3.83;;
58581;SDS011;44361;51.476;5.700;2024-01-27T12:21:06;19.85;;;4.10;;
58581;SDS011;44361;51.476;5.700;2024-01-27T12:23:32;17.17;;;3.85;;
58581;SDS011;44361;51.476;5.700;2024-01-27T12:25:57;9.65;;;3.03;;
58581;SDS011;44361;51.476;5.700;2024-01-27T12:28:23;50.70;;;16.95;;
58581;SDS011;44361;51.476;5.700;2024-01-27T12:30:50;45.53;;;20.02;;
58581;SDS011;44361;51.476;5.700;2024-01-27T12:33:17;18.33;;;4.90;;
58581;SDS011;44361;51.476;5.700;2024-01-27T12:35:47;16.73;;;3.88;;
58581;SDS011;44361;51.476;5.700;2024-01-27T12:38:12;12.77;;;3.08;;
58581;SDS011;44361;51.476;5.700;2024-01-27T12:40:38;16.77;;;3.78;;
58581;SDS011;44361;51.476;5.700;2024-01-27T12:43:03;13.07;;;2.88;;
58581;SDS011;44361;51.476;5.700;2024-01-27T12:45:29;11.30;;;3.35;;
58581;SDS011;44361;51.476;5.700;2024-01-27T12:47:55;9.45;;;2.47;;
58581;SDS011;44361;51.476;5.700;2024-01-27T12:50:20;12.13;;;2.90;;
58581;SDS011;44361;51.476;5.700;2024-01-27T12:52:46;12.10;;;2.88;;
58581;SDS011;44361;51.476;5.700;2024-01-27T12:55:12;13.05;;;3.40;;
58581;SDS011;44361;51.476;5.700;2024-01-27T12:57:38;11.90;;;3.15;;
58581;SDS011;44361;51.476;5.700;2024-01-27T13:00:05;9.85;;;2.28;;
58581;SDS011;44361;51.476;5.700;2024-01-27T13:02:35;15.45;;;3.38;;
58581;SDS011;44361;51.476;5.700;2024-01-27T13:05:04;14.98;;;2.75;;
58581;SDS011;44361;51.476;5.700;2024-01-27T13:07:30;20.15;;;4.20;;
58581;SDS011;44361;51.476;5.700;2024-01-27T13:09:56;20.10;;;4.53;;
58581;SDS011;44361;51.476;5.700;2024-01-27T13:12:21;11.43;;;2.47;;
58581;SDS011;44361;51.476;5.700;2024-01-27T13:14:47;13.32;;;2.92;;
58581;SDS011;44361;51.476;5.700;2024-01-27T13:17:14;8.68;;;2.58;;
58581;SDS011;44361;51.476;5.700;2024-01-27T13:19:40;20.50;;;3.85;;
58581;SDS011;44361;51.476;5.700;2024-01-27T13:22:06;11.38;;;3.15;;
58581;SDS011;44361;51.476;5.700;2024-01-27T13:24:32;41.70;;;14.95;;
58581;SDS011;44361;51.476;5.700;2024-01-27T13:26:58;43.33;;;20.38;;
58581;SDS011;44361;51.476;5.700;2024-01-27T13:29:24;11.55;;;2.60;;
58581;SDS011;44361;51.476;5.700;2024-01-27T13:31:49;13.15;;;2.95;;
58581;SDS011;44361;51.476;5.700;2024-01-27T13:34:15;8.30;;;2.28;;
58581;SDS011;44361;51.476;5.700;2024-01-27T13:36:41;10.88;;;2.00;;
58581;SDS011;44361;51.476;5.700;2024-01-27T13:39:06;14.07;;;3.08;;
58581;SDS011;44361;51.476;5.700;2024-01-27T13:41:32;12.65;;;2.65;;
58581;SDS011;44361;51.476;5.700;2024-01-27T13:43:57;15.07;;;3.55;;
58581;SDS011;44361;51.476;5.700;2024-01-27T13:46:23;13.65;;;2.78;;
58581;SDS011;44361;51.476;5.700;2024-01-27T13:48:49;15.32;;;2.92;;
58581;SDS011;44361;51.476;5.700;2024-01-27T13:51:14;14.00;;;3.05;;
58581;SDS011;44361;51.476;5.700;2024-01-27T13:53:40;10.23;;;2.65;;
58581;SDS011;44361;51.476;5.700;2024-01-27T13:56:06;12.20;;;2.67;;
58581;SDS011;44361;51.476;5.700;2024-01-27T13:58:32;13.82;;;2.65;;
58581;SDS011;44361;51.476;5.700;2024-01-27T14:00:57;13.70;;;2.90;;
58581;SDS011;44361;51.476;5.700;2024-01-27T14:03:23;10.98;;;3.85;;
58581;SDS011;44361;51.476;5.700;2024-01-27T14:05:48;15.38;;;2.40;;
58581;SDS011;44361;51.476;5.700;2024-01-27T14:08:14;17.73;;;2.95;;
58581;SDS011;44361;51.476;5.700;2024-01-27T14:10:42;13.38;;;2.90;;
58581;SDS011;44361;51.476;5.700;2024-01-27T14:13:08;13.45;;;3.70;;
58581;SDS011;44361;51.476;5.700;2024-01-27T14:15:35;11.43;;;2.88;;
58581;SDS011;44361;51.476;5.700;2024-01-27T14:18:01;19.20;;;2.80;;
58581;SDS011;44361;51.476;5.700;2024-01-27T14:20:27;9.63;;;2.20;;
58581;SDS011;44361;51.476;5.700;2024-01-27T14:22:54;4.90;;;1.80;;
58581;SDS011;44361;51.476;5.700;2024-01-27T14:25:20;11.25;;;2.38;;
58581;SDS011;44361;51.476;5.700;2024-01-27T14:27:45;11.63;;;2.28;;